Time;durP1;ratioP1;P1;durP2;ratioP2;P2;SDS_P1;SDS_P2;PMS_P1;PMS_P2;Temp;Humidity;BMP_temperature;BMP_pressure;BME280_temperature;BME280_humidity;BME280_pressure;Samples;Min_cycle;Max_cycle;Signal;HPM_P1;HPM_P2
2022/04/26 03:37:34;;;;;;;8.60;7.60;;;;;;;8.28;75.72;100032.91;104179;1294;22597;-82
2022/04/26 03:40:00;;;;;;;9.70;8.70;;;;;;;8.22;75.79;100035.21;104234;1293;25414;-85
2022/04/26 03:42:27;;;;;;;11.30;10.10;;;;;;;8.14;76.05;100037.17;104632;1291;25438;-85
2022/04/26 03:44:53;;;;;;;10.30;9.20;;;;;;;8.14;76.29;100038.41;104880;1288;22586;-81
2022/04/26 03:47:20;;;;;;;10.50;9.40;;;;;;;8.14;76.18;100041.75;105129;1284;22790;-82
2022/04/26 03:49:46;;;;;;;13.40;10.80;;;;;;;8.18;76.63;100042.95;106386;1284;22698;-81
2022/04/26 03:52:13;;;;;;;10.50;8.90;;;;;;;8.26;76.53;100042.91;106082;1285;22606;-83
2022/04/26 03:54:39;;;;;;;12.00;10.70;;;;;;;8.23;76.34;100040.48;106999;1284;25417;-81
2022/04/26 03:57:06;;;;;;;13.70;11.30;;;;;;;8.18;76.32;100046.63;107224;1284;23937;-81
2022/04/26 03:59:32;;;;;;;10.70;9.60;;;;;;;8.16;76.44;100046.83;107062;1284;23992;-83
2022/04/26 04:02:00;;;;;;;9.70;8.80;;;;;;;8.18;76.42;100048.22;106719;1285;22674;-83
2022/04/26 04:04:27;;;;;;;12.30;11.00;;;;;;;8.10;76.24;100050.19;106442;1285;24353;-82
2022/04/26 04:06:53;;;;;;;13.80;12.40;;;;;;;8.02;76.52;100055.29;106049;1279;23230;-85
2022/04/26 04:09:20;;;;;;;11.70;10.50;;;;;;;8.06;76.75;100050.38;106989;1279;23144;-87
2022/04/26 04:11:48;;;;;;;10.30;9.20;;;;;;;8.06;76.57;100053.70;109157;1279;22630;-91
2022/04/26 04:14:18;;;;;;;12.30;10.30;;;;;;;8.01;76.49;100062.33;109272;1279;22526;-92
2022/04/26 04:17:03;;;;;;;;;;;;;;;;;;;;;
2022/04/26 04:19:27;;;;;;;13.00;11.60;;;;;;;8.12;76.97;100064.02;109285;1269;22579;-86
2022/04/26 04:22:14;;;;;;;8.20;7.40;;;;;;;8.15;76.75;100070.16;106848;1285;22568;-83
2022/04/26 04:24:42;;;;;;;11.60;10.40;;;;;;;8.18;76.59;100074.52;108004;1282;22943;-85
2022/04/26 04:27:10;;;;;;;9.70;8.00;;;;;;;8.16;76.70;100077.17;108573;1283;22723;-81
2022/04/26 04:29:52;;;;;;;12.00;10.00;;;;;;;8.17;76.55;100076.29;108338;1281;22669;-81
2022/04/26 04:32:21;;;;;;;11.10;9.90;;;;;;;8.18;76.65;100084.52;108631;1281;22718;-88
2022/04/26 04:34:48;;;;;;;9.40;8.30;;;;;;;8.16;76.69;100083.84;107746;1281;23882;-85
2022/04/26 04:37:15;;;;;;;12.30;10.50;;;;;;;8.19;76.54;100087.68;108238;1284;22681;-88
2022/04/26 04:39:43;;;;;;;10.50;9.40;;;;;;;8.22;76.57;100088.02;108757;1281;23096;-86
2022/04/26 04:42:14;;;;;;;11.80;9.50;;;;;;;8.24;76.35;100090.64;108004;1282;22622;-86
2022/04/26 04:44:43;;;;;;;10.90;9.60;;;;;;;8.23;76.21;100093.45;107345;1281;22523;-87
2022/04/26 04:47:11;;;;;;;9.80;8.90;;;;;;;8.25;76.39;100095.71;107275;1282;22565;-84
2022/04/26 04:49:41;;;;;;;9.00;8.10;;;;;;;8.21;76.28;100096.10;106679;1280;22499;-85
2022/04/26 04:52:07;;;;;;;11.80;9.80;;;;;;;8.16;76.37;100106.29;106329;1281;22551;-82
2022/04/26 04:54:34;;;;;;;11.90;9.60;;;;;;;8.10;76.56;100109.99;105517;1281;22565;-78
2022/04/26 04:57:04;;;;;;;10.50;9.20;;;;;;;8.07;76.70;100114.73;105765;1281;24427;-84
2022/04/26 04:59:30;;;;;;;11.30;10.10;;;;;;;8.03;76.84;100116.51;105275;1284;22577;-85
2022/04/26 05:01:58;;;;;;;12.30;11.00;;;;;;;7.96;76.89;100117.22;104746;1290;23442;-86
2022/04/26 05:04:24;;;;;;;12.50;11.20;;;;;;;7.95;77.28;100121.42;105133;1288;22573;-86
2022/04/26 05:06:51;;;;;;;12.50;11.20;;;;;;;7.96;77.17;100118.98;104915;1288;253884;-86
2022/04/26 05:09:18;;;;;;;12.40;11.00;;;;;;;7.97;77.36;100121.25;104939;1288;22592;-83
2022/04/26 05:11:45;;;;;;;12.70;10.30;;;;;;;8.02;77.35;100125.44;105089;1288;24556;-85
2022/04/26 05:14:12;;;;;;;12.20;10.70;;;;;;;8.02;77.02;100125.27;104589;1291;22616;-79
2022/04/26 05:16:38;;;;;;;13.40;11.00;;;;;;;7.96;76.87;100123.88;104885;1290;22572;-82
2022/04/26 05:19:04;;;;;;;12.80;11.50;;;;;;;7.89;77.02;100127.23;105362;1287;22598;-78
2022/04/26 05:21:31;;;;;;;13.10;11.70;;;;;;;7.88;77.17;100128.28;105563;1282;24673;-86
2022/04/26 05:26:43;;;;;;;14.80;11.60;;;;;;;7.88;77.36;100132.48;105524;1284;25268;-86
2022/04/26 05:29:10;;;;;;;13.20;10.90;;;;;;;7.95;77.47;100137.05;105454;1282;22594;-85
2022/04/26 05:31:38;;;;;;;14.70;11.90;;;;;;;8.01;77.21;100138.78;105377;1284;22554;-85
2022/04/26 05:34:04;;;;;;;13.90;12.40;;;;;;;8.02;77.11;100136.68;105682;1284;22669;-87
2022/04/26 05:36:33;;;;;;;13.40;10.30;;;;;;;8.00;77.06;100142.98;105201;1290;22563;-84
2022/04/26 05:39:01;;;;;;;14.50;11.30;;;;;;;7.91;76.88;100142.31;104852;1287;23152;-77
2022/04/26 05:50:12;;;;;;;13.70;12.20;;;;;;;7.75;77.29;100157.25;104869;1287;23992;-79
2022/04/26 05:52:44;;;;;;;12.70;11.30;;;;;;;7.79;77.84;100160.03;104968;1287;22553;-77
2022/04/26 05:55:48;;;;;;;11.70;10.00;;;;;;;7.90;77.74;100161.25;104137;1293;22684;-77
2022/04/26 05:58:16;;;;;;;13.80;12.10;;;;;;;7.97;77.31;100160.54;104135;1293;22598;-78
2022/04/26 06:01:10;;;;;;;14.30;12.00;;;;;;;7.99;77.42;100167.20;104136;1294;24238;-78
2022/04/26 06:12:18;;;;;;;11.90;10.10;;;;;;;8.07;77.09;100172.61;104891;1287;24310;-77
2022/04/26 06:15:35;;;;;;;12.70;10.80;;;;;;;8.10;77.21;100174.01;105388;1281;22553;-77
2022/04/26 06:22:49;;;;;;;12.40;10.80;;;;;;;8.12;77.17;100178.56;105659;1281;24422;-76
2022/04/26 06:25:19;;;;;;;14.10;12.40;;;;;;;8.21;77.41;100179.05;105553;1281;25273;-77
2022/04/26 06:28:15;;;;;;;12.20;11.00;;;;;;;8.28;77.11;100185.89;105295;1282;22565;-80
2022/04/26 06:30:42;;;;;;;11.60;9.90;;;;;;;8.37;76.83;100186.22;105390;1282;22572;-77
2022/04/26 06:33:58;;;;;;;10.60;9.50;;;;;;;8.38;76.58;100189.37;105458;1281;24445;-78
2022/04/26 06:36:24;;;;;;;12.90;10.60;;;;;;;8.48;76.45;100189.33;105692;1281;22550;-81
2022/04/26 06:39:28;;;;;;;11.30;10.10;;;;;;;8.47;76.09;100191.09;105515;1282;22573;-78
2022/04/26 06:42:45;;;;;;;9.90;8.60;;;;;;;8.40;75.71;100193.22;105609;1281;24236;-81
2022/04/26 06:45:11;;;;;;;10.90;9.70;;;;;;;8.22;75.69;100189.77;105443;1282;22572;-76
2022/04/26 06:47:38;;;;;;;9.60;8.50;;;;;;;8.19;76.27;100193.12;105651;1282;24289;-78
2022/04/26 06:54:29;;;;;;;9.70;8.10;;;;;;;8.28;76.45;100200.27;105640;1281;22581;-80
2022/04/26 06:57:25;;;;;;;11.10;9.00;;;;;;;8.35;76.48;100204.66;105431;1281;25326;-80
2022/04/26 06:59:52;;;;;;;11.40;8.60;;;;;;;8.49;76.77;100208.98;104931;1288;25280;-78
2022/04/26 07:03:10;;;;;;;11.10;8.80;;;;;;;8.62;76.37;100207.58;105030;1287;22578;-80
2022/04/26 07:05:37;;;;;;;9.30;8.30;;;;;;;8.70;75.57;100212.10;105010;1287;25281;-77
2022/04/26 07:08:43;;;;;;;10.20;9.20;;;;;;;8.65;75.14;100215.63;104772;1287;22560;-78
2022/04/26 07:11:35;;;;;;;10.30;9.10;;;;;;;8.63;74.90;100217.04;105472;1287;22665;-79
2022/04/26 07:14:01;;;;;;;9.00;8.10;;;;;;;8.59;74.76;100213.89;104208;1293;22569;-82
2022/04/26 07:16:53;;;;;;;9.10;8.10;;;;;;;8.62;74.72;100218.09;104274;1293;22570;-81
2022/04/26 07:24:10;;;;;;;9.10;8.00;;;;;;;8.59;74.29;100218.98;104742;1290;23029;-78
2022/04/26 07:26:36;;;;;;;9.40;8.40;;;;;;;8.63;74.39;100227.77;104331;1293;22639;-80
2022/04/26 07:29:42;;;;;;;7.50;6.80;;;;;;;8.58;74.17;100230.94;104244;1293;25361;-78
2022/04/26 07:32:08;;;;;;;9.30;7.90;;;;;;;8.55;74.14;100234.80;104358;1293;22541;-79
2022/04/26 07:38:52;;;;;;;8.90;7.60;;;;;;;8.69;74.01;100243.18;104622;1288;25285;-78
2022/04/26 07:41:19;;;;;;;;;;;;;;;8.62;73.82;100244.25;104946;1293;23502;-78
2022/04/26 07:43:46;;;;;;;9.40;8.40;;;;;;;8.62;73.99;100251.46;104659;1296;25353;-78
2022/04/26 07:46:16;;;;;;;7.90;7.00;;;;;;;8.71;74.16;100252.30;105717;1290;22525;-77
2022/04/26 07:48:43;;;;;;;7.80;6.80;;;;;;;8.79;73.83;100254.04;107109;1290;22894;-77
2022/04/26 07:51:11;;;;;;;7.50;6.70;;;;;;;8.83;73.60;100258.23;107535;1293;22867;-78
2022/04/26 07:53:39;;;;;;;8.00;7.20;;;;;;;8.89;73.67;100255.56;106258;1293;22681;-78
2022/04/26 07:56:06;;;;;;;9.40;8.40;;;;;;;8.94;73.36;100259.75;107484;1292;22894;-79
2022/04/26 07:58:52;;;;;;;10.70;9.60;;;;;;;8.99;73.41;100264.13;107684;1288;22824;-78
2022/04/26 08:01:19;;;;;;;10.80;8.90;;;;;;;9.00;73.08;100267.80;107534;1282;22588;-79
2022/04/26 08:03:45;;;;;;;11.00;9.10;;;;;;;8.98;73.53;100271.69;108501;1284;22742;-79
2022/04/26 08:06:12;;;;;;;13.80;11.00;;;;;;;9.02;73.61;100274.30;108667;1282;22840;-80
2022/04/26 08:08:39;;;;;;;13.20;8.80;;;;;;;9.08;73.66;100280.23;108463;1282;22854;-79
2022/04/26 08:11:12;;;;;;;22.60;13.20;;;;;;;9.03;73.23;100284.13;107898;1282;22552;-78
2022/04/26 08:13:40;;;;;;;22.60;13.60;;;;;;;8.93;73.40;100284.16;108044;1282;22938;-78
2022/04/26 08:16:33;;;;;;;16.60;11.50;;;;;;;8.96;73.70;100287.33;107783;1282;22561;-78
2022/04/26 08:23:21;;;;;;;14.80;11.70;;;;;;;8.92;73.42;100294.36;105528;1282;25270;-74
2022/04/26 08:28:34;;;;;;;16.00;12.90;;;;;;;8.82;73.34;100300.02;104772;1290;25394;-78
2022/04/26 08:31:01;;;;;;;14.10;11.80;;;;;;;8.79;73.59;100299.52;104818;1290;22739;-76
2022/04/26 08:33:30;;;;;;;14.30;10.50;;;;;;;8.77;73.70;100297.76;104068;1296;24002;-77
2022/04/26 08:40:31;;;;;;;12.30;11.00;;;;;;;8.74;73.69;100303.73;104129;1293;22569;-80
2022/04/26 08:42:59;;;;;;;14.30;11.40;;;;;;;8.69;73.98;100310.23;104049;1293;26548;-79
2022/04/26 08:45:27;;;;;;;16.50;12.50;;;;;;;8.67;74.18;100310.60;104327;1293;22585;-78
2022/04/26 08:53:26;;;;;;;13.70;12.00;;;;;;;8.92;74.48;100320.18;104525;1288;24425;-75
2022/04/26 08:55:59;;;;;;;12.90;11.10;;;;;;;9.05;74.19;100325.75;104638;1291;23889;-76
2022/04/26 08:59:47;;;;;;;12.10;10.80;;;;;;;9.07;73.51;100328.02;104172;1296;22615;-81
2022/04/26 09:02:39;;;;;;;14.30;11.50;;;;;;;9.05;73.26;100332.08;104477;1297;24252;-77
2022/04/26 09:05:14;;;;;;;10.70;9.30;;;;;;;9.00;72.93;100331.23;104658;1296;22866;-80
2022/04/26 09:07:45;;;;;;;11.40;10.20;;;;;;;8.96;72.79;100330.70;103982;1299;22997;-79
2022/04/26 09:15:16;;;;;;;13.60;11.20;;;;;;;8.98;72.68;100336.86;104016;1296;22575;-76
2022/04/26 09:17:42;;;;;;;14.90;12.90;;;;;;;8.98;72.90;100342.48;104727;1288;22680;-80
2022/04/26 09:25:27;;;;;;;16.00;13.70;;;;;;;9.15;73.13;100345.91;105503;1282;22782;-76
2022/04/26 09:31:33;;;;;;;14.40;12.90;;;;;;;9.52;73.03;100347.34;105265;1287;22641;-79
2022/04/26 09:34:05;;;;;;;15.50;13.30;;;;;;;9.68;72.52;100342.31;104589;1287;24164;-79
2022/04/26 09:37:04;;;;;;;15.90;13.40;;;;;;;9.83;72.53;100342.05;104063;1296;24119;-78
2022/04/26 09:39:31;;;;;;;13.80;12.30;;;;;;;9.97;71.69;100342.65;104185;1296;23016;-77
2022/04/26 09:42:29;;;;;;;13.20;11.70;;;;;;;10.00;71.39;100340.52;104050;1296;25419;-78
2022/04/26 09:45:07;;;;;;;12.30;11.10;;;;;;;10.10;71.66;100342.20;104145;1293;22666;-75
2022/04/26 09:48:01;;;;;;;12.20;10.50;;;;;;;10.14;71.26;100338.48;105097;1293;23998;-78
2022/04/26 09:50:29;;;;;;;11.50;10.30;;;;;;;10.15;70.85;100343.57;105974;1293;22525;-78
2022/04/26 09:52:58;;;;;;;11.90;10.20;;;;;;;10.17;70.62;100340.55;106265;1293;22623;-78
2022/04/26 09:56:21;;;;;;;12.90;10.80;;;;;;;10.24;70.27;100342.61;106607;1287;22700;-79
2022/04/26 10:07:30;;;;;;;14.00;11.10;;;;;;;10.19;69.86;100348.80;105775;1281;22563;-80
2022/04/26 10:09:57;;;;;;;13.10;11.10;;;;;;;10.26;70.00;100353.34;105481;1282;22580;-81
2022/04/26 10:13:35;;;;;;;12.60;10.20;;;;;;;10.32;69.78;100352.23;105390;1285;24236;-76
2022/04/26 10:20:04;;;;;;;12.90;10.60;;;;;;;10.52;68.70;100350.33;106604;1282;24245;-79
2022/04/26 10:33:42;;;;;;;15.30;11.60;;;;;;;10.76;67.57;100357.64;105590;1282;26630;-80
2022/04/26 10:39:50;;;;;;;11.10;9.70;;;;;;;10.72;67.54;100368.80;105517;1282;24391;-79
2022/04/26 10:43:06;;;;;;;11.90;10.40;;;;;;;10.64;66.66;100366.92;106223;1282;24581;-79
2022/04/26 10:45:33;;;;;;;10.30;9.30;;;;;;;10.65;67.07;100367.80;105522;1282;22745;-81
2022/04/26 10:55:10;;;;;;;10.70;8.90;;;;;;;10.92;66.32;100368.77;105206;1284;22544;-77
2022/04/26 10:57:39;;;;;;;10.90;8.90;;;;;;;11.06;66.25;100367.89;105370;1282;25266;-80
2022/04/26 11:00:16;;;;;;;11.10;9.10;;;;;;;11.11;65.47;100370.65;105222;1282;22711;-77
2022/04/26 11:03:35;;;;;;;11.50;8.10;;;;;;;11.09;65.45;100369.27;105403;1282;24363;-81
2022/04/26 11:06:05;;;;;;;11.40;8.70;;;;;;;11.13;65.28;100368.35;105553;1281;22612;-77
2022/04/26 11:08:31;;;;;;;9.20;8.30;;;;;;;11.14;64.92;100368.52;105294;1281;23116;-78
2022/04/26 11:14:40;;;;;;;12.30;8.30;;;;;;;11.29;64.61;100367.47;105390;1282;25321;-79
2022/04/26 11:17:06;;;;;;;11.60;8.50;;;;;;;11.22;64.17;100371.23;105210;1282;24152;-76
2022/04/26 11:19:36;;;;;;;15.50;10.10;;;;;;;11.10;64.17;100369.27;105218;1282;25385;-79
2022/04/26 11:22:12;;;;;;;15.20;11.10;;;;;;;11.14;65.02;100374.70;105236;1282;22571;-80
2022/04/26 11:30:10;;;;;;;12.40;9.70;;;;;;;11.35;64.23;100373.36;105435;1281;22550;-78
2022/04/26 11:32:42;;;;;;;10.60;9.50;;;;;;;11.42;63.62;100370.45;105793;1281;24166;-78
2022/04/26 11:35:15;;;;;;;10.60;9.00;;;;;;;11.37;63.09;100372.11;105809;1281;25375;-78
2022/04/26 11:37:53;;;;;;;13.60;10.00;;;;;;;11.40;63.16;100368.20;105743;1281;22558;-80
2022/04/26 11:40:30;;;;;;;11.30;8.70;;;;;;;11.47;63.01;100368.64;105776;1281;22630;-78
2022/04/26 11:42:58;;;;;;;11.60;9.70;;;;;;;11.50;62.94;100370.18;107187;1282;22621;-76
2022/04/26 11:45:30;;;;;;;13.90;11.10;;;;;;;11.56;63.23;100374.34;107688;1282;23751;-78
2022/04/26 11:47:57;;;;;;;13.30;10.60;;;;;;;11.60;63.18;100373.77;107609;1287;22721;-78
2022/04/26 11:50:31;;;;;;;12.90;9.80;;;;;;;11.68;63.36;100376.80;106761;1287;22557;-77
2022/04/26 11:53:08;;;;;;;15.20;10.60;;;;;;;11.83;63.12;100367.44;107129;1287;23774;-78
2022/04/26 11:55:40;;;;;;;18.80;10.40;;;;;;;12.01;63.24;100373.19;107551;1286;22708;-78
2022/04/26 11:58:17;;;;;;;12.70;9.80;;;;;;;12.21;62.93;100371.13;107177;1287;22499;-81
2022/04/26 12:01:08;;;;;;;12.60;9.70;;;;;;;12.46;63.03;100370.54;106570;1287;22542;-77
2022/04/26 12:03:45;;;;;;;11.90;9.00;;;;;;;12.68;62.02;100368.91;106376;1287;24363;-76
2022/04/26 12:06:56;;;;;;;10.30;8.70;;;;;;;12.86;61.63;100370.70;105840;1281;22553;-78
2022/04/26 12:09:24;;;;;;;11.20;8.90;;;;;;;12.93;60.09;100372.52;105557;1281;25653;-78
2022/04/26 12:12:05;;;;;;;10.10;9.00;;;;;;;12.86;60.13;100373.36;105558;1281;23967;-75
2022/04/26 12:14:32;;;;;;;9.70;8.50;;;;;;;12.93;59.78;100375.17;105475;1282;22608;-80
2022/04/26 12:20:59;;;;;;;10.40;8.30;;;;;;;12.81;58.31;100373.27;105668;1281;24260;-78
2022/04/26 12:23:31;;;;;;;8.40;7.50;;;;;;;12.76;59.01;100374.06;104774;1287;25276;-78
2022/04/26 12:26:04;;;;;;;7.90;7.10;;;;;;;12.85;58.86;100374.25;105144;1286;24213;-79
2022/04/26 12:28:31;;;;;;;8.50;7.30;;;;;;;12.99;58.84;100367.29;104936;1287;22710;-79
2022/04/26 12:30:58;;;;;;;9.70;8.30;;;;;;;13.08;58.35;100368.34;105093;1287;22580;-76
2022/04/26 12:33:31;;;;;;;7.70;6.90;;;;;;;13.16;58.38;100362.34;105175;1287;22559;-83
2022/04/26 12:36:02;;;;;;;9.00;8.10;;;;;;;13.22;57.46;100361.35;104975;1287;24271;-78
2022/04/26 12:38:50;;;;;;;8.60;7.80;;;;;;;13.24;57.78;100361.48;104923;1287;22571;-81
2022/04/26 12:41:21;;;;;;;8.60;7.70;;;;;;;13.27;56.52;100359.83;104965;1282;25333;-78
2022/04/26 12:44:15;;;;;;;9.20;7.30;;;;;;;13.09;56.66;100366.39;105336;1282;22911;-80
2022/04/26 12:50:29;;;;;;;8.90;7.10;;;;;;;12.97;56.98;100367.14;104877;1285;24823;-80
2022/04/26 12:53:28;;;;;;;11.60;7.80;;;;;;;12.92;57.10;100364.08;107023;1282;24292;-80
2022/04/26 12:56:06;;;;;;;6.90;6.20;;;;;;;12.98;57.02;100362.16;105646;1282;22635;-78
2022/04/26 12:58:36;;;;;;;7.50;6.40;;;;;;;12.93;56.72;100366.17;105200;1285;25608;-80
2022/04/26 13:01:07;;;;;;;8.20;6.60;;;;;;;12.95;57.20;100365.59;105288;1284;23081;-82
2022/04/26 13:03:35;;;;;;;7.20;6.50;;;;;;;13.06;57.14;100366.98;104995;1288;22562;-80
2022/04/26 13:06:17;;;;;;;8.80;6.70;;;;;;;13.14;56.86;100362.76;105093;1285;25429;-79
2022/04/26 13:09:03;;;;;;;9.30;7.50;;;;;;;13.22;56.61;100365.23;105132;1287;22589;-79
2022/04/26 13:11:32;;;;;;;9.80;8.30;;;;;;;13.21;56.16;100362.79;105004;1286;22811;-78
2022/04/26 13:13:59;;;;;;;9.60;6.90;;;;;;;13.14;55.67;100361.34;105183;1285;24259;-80
2022/04/26 13:16:26;;;;;;;8.70;6.70;;;;;;;12.98;55.69;100360.76;105182;1285;24275;-81
2022/04/26 13:22:35;;;;;;;8.30;6.60;;;;;;;13.07;56.59;100362.17;105565;1282;23480;-77
2022/04/26 13:28:40;;;;;;;14.10;7.90;;;;;;;13.07;55.87;100360.60;105633;1282;25255;-79
2022/04/26 13:35:49;;;;;;;;;;;;;;;;;;;;;
2022/04/26 13:40:09;;;;;;;8.60;7.00;;;;;;;12.81;55.32;100359.85;104722;1291;23028;-76
2022/04/26 13:43:07;;;;;;;7.80;7.00;;;;;;;12.83;55.95;100361.58;104915;1291;24250;-82
2022/04/26 13:54:27;;;;;;;10.20;7.40;;;;;;;13.35;55.48;100364.79;104688;1291;22614;-80
2022/04/26 13:57:44;;;;;;;11.50;8.10;;;;;;;13.36;54.93;100365.13;104927;1290;25711;-80
2022/04/26 14:04:36;;;;;;;8.80;7.70;;;;;;;13.25;54.90;100365.89;106804;1290;22943;-80
2022/04/26 14:23:23;;;;;;;8.30;7.00;;;;;;;13.59;54.40;100368.73;108287;1281;22547;-80
2022/04/26 14:29:35;;;;;;;9.60;7.70;;;;;;;13.37;53.99;100365.10;107293;1281;22538;-79
2022/04/26 14:32:04;;;;;;;8.70;7.30;;;;;;;13.21;54.24;100366.31;106793;1285;23136;-80
2022/04/26 14:34:31;;;;;;;9.00;7.70;;;;;;;13.16;54.64;100372.08;105338;1286;22674;-80
2022/04/26 14:37:03;;;;;;;7.00;6.30;;;;;;;13.11;54.79;100373.77;105713;1284;22537;-80
2022/04/26 14:48:49;;;;;;;7.50;6.80;;;;;;;12.62;55.90;100371.88;105444;1284;22579;-79
2022/04/26 15:04:25;;;;;;;8.00;6.80;;;;;;;12.35;56.18;100377.26;105269;1285;22566;-78
2022/04/26 15:06:52;;;;;;;8.30;6.60;;;;;;;12.27;56.45;100381.45;105585;1284;26544;-80
2022/04/26 15:18:40;;;;;;;7.40;6.50;;;;;;;11.93;57.05;100388.65;106247;1290;22531;-90
2022/04/26 15:21:10;;;;;;;9.10;6.40;;;;;;;11.90;57.20;100385.16;105946;1290;22877;-88
2022/04/26 15:23:41;;;;;;;8.60;7.10;;;;;;;11.86;57.28;100384.33;105373;1294;22619;-91
2022/04/26 15:26:12;;;;;;;8.30;6.20;;;;;;;11.88;57.39;100385.36;105195;1293;22550;-89
2022/04/26 15:28:41;;;;;;;8.50;7.20;;;;;;;11.87;57.31;100391.89;105628;1293;22572;-89
2022/04/26 15:31:30;;;;;;;;;;;;;;;;;;;;;
2022/04/26 15:34:12;;;;;;;7.80;6.80;;;;;;;11.83;57.64;100399.38;106075;1299;22589;-88
2022/04/26 15:36:41;;;;;;;6.80;6.10;;;;;;;11.82;57.53;100397.98;105071;1296;24134;-74
2022/04/26 15:39:07;;;;;;;8.10;6.20;;;;;;;11.78;57.71;100396.11;104113;1294;26562;-73
2022/04/26 15:41:38;;;;;;;6.60;5.50;;;;;;;11.81;57.68;100398.71;105115;1290;22600;-89
2022/04/26 15:44:26;;;;;;;6.70;5.90;;;;;;;11.76;57.50;100399.48;106690;1291;22955;-87
2022/04/26 15:46:59;;;;;;;7.60;6.20;;;;;;;11.70;57.40;100401.49;106933;1290;22679;-88
2022/04/26 15:49:28;;;;;;;7.40;6.60;;;;;;;11.68;57.68;100394.64;106896;1290;22642;-86
2022/04/26 15:51:57;;;;;;;6.50;5.60;;;;;;;11.71;57.62;100396.55;107084;1285;22691;-87
2022/04/26 15:54:28;;;;;;;8.20;6.30;;;;;;;11.71;57.64;100393.71;107887;1285;22893;-88
2022/04/26 15:56:55;;;;;;;7.50;6.50;;;;;;;11.70;57.70;100396.19;108061;1287;22612;-88
2022/04/26 15:59:24;;;;;;;6.30;5.70;;;;;;;11.60;57.85;100396.33;106983;1293;22607;-87
2022/04/26 16:01:58;;;;;;;11.70;6.30;;;;;;;11.60;58.15;100397.57;107068;1293;24033;-88
2022/04/26 16:04:26;;;;;;;7.50;6.50;;;;;;;11.67;58.37;100398.18;105114;1296;23212;-88
2022/04/26 16:07:02;;;;;;;8.60;6.70;;;;;;;11.70;58.53;100395.49;104758;1294;25286;-88
2022/04/26 16:20:34;;;;;;;11.50;7.40;;;;;;;11.93;58.65;100397.30;105853;1296;22580;-88
2022/04/26 16:23:05;;;;;;;8.40;6.70;;;;;;;11.95;58.24;100399.73;105661;1294;22836;-88
2022/04/26 16:25:33;;;;;;;14.60;7.50;;;;;;;11.93;58.05;100399.77;107038;1294;24035;-88
2022/04/26 16:28:03;;;;;;;9.10;6.80;;;;;;;11.91;58.17;100398.55;107195;1293;23959;-89
2022/04/26 16:30:35;;;;;;;7.80;6.80;;;;;;;11.88;57.94;100402.84;107490;1293;22687;-89
2022/04/26 16:33:04;;;;;;;7.20;6.10;;;;;;;11.86;57.88;100403.04;107597;1292;22943;-89
2022/04/26 16:35:34;;;;;;;7.90;6.40;;;;;;;11.84;57.77;100401.13;107591;1287;22777;-90
2022/04/26 16:38:01;;;;;;;10.30;6.70;;;;;;;11.80;57.80;100400.48;107834;1282;22621;-90
2022/04/26 16:40:32;;;;;;;9.10;6.70;;;;;;;11.77;57.83;100402.46;107743;1284;22591;-89
2022/04/26 16:43:03;;;;;;;7.30;6.30;;;;;;;11.76;57.92;100403.35;107394;1282;24429;-89
2022/04/26 16:45:53;;;;;;;7.70;6.30;;;;;;;11.73;57.84;100403.93;106949;1282;23019;-87
2022/04/26 16:48:27;;;;;;;11.20;7.00;;;;;;;11.72;58.15;100399.70;107442;1284;22561;-88
2022/04/26 16:50:54;;;;;;;8.80;6.80;;;;;;;11.76;57.98;100401.26;107318;1282;22706;-88
2022/04/26 16:53:22;;;;;;;11.20;7.50;;;;;;;11.72;58.23;100399.70;107206;1282;25278;-89
2022/04/26 16:55:50;;;;;;;9.20;6.80;;;;;;;11.74;58.41;100405.48;106311;1282;22761;-88
2022/04/26 16:58:19;;;;;;;9.00;6.20;;;;;;;11.76;58.26;100407.94;106664;1282;23274;-88
2022/04/26 17:00:50;;;;;;;9.60;6.60;;;;;;;11.72;58.21;100405.69;106245;1281;22622;-88
2022/04/26 17:03:18;;;;;;;7.30;6.20;;;;;;;11.72;58.18;100410.10;106142;1284;24229;-88
2022/04/26 17:05:49;;;;;;;6.90;6.20;;;;;;;11.73;58.26;100413.45;106356;1284;22665;-88
2022/04/26 17:08:19;;;;;;;9.80;6.50;;;;;;;11.74;58.33;100415.55;106471;1282;358672;-87
2022/04/26 17:10:47;;;;;;;7.90;6.50;;;;;;;11.73;58.36;100421.91;106067;1288;24254;-89
2022/04/26 17:13:19;;;;;;;7.90;6.80;;;;;;;11.72;58.30;100423.50;106838;1288;22611;-88
2022/04/26 17:15:49;;;;;;;9.30;8.20;;;;;;;11.68;58.40;100423.04;106529;1288;22720;-89
2022/04/26 17:18:18;;;;;;;10.30;8.40;;;;;;;11.67;58.47;100424.30;106437;1290;24272;-87
2022/04/26 17:20:45;;;;;;;7.80;6.90;;;;;;;11.67;58.56;100429.04;106393;1287;22567;-87
2022/04/26 17:23:14;;;;;;;8.50;6.80;;;;;;;11.63;58.68;100431.04;106312;1287;22626;-89
2022/04/26 17:25:41;;;;;;;11.10;8.20;;;;;;;11.60;58.75;100430.71;106158;1288;22675;-86
2022/04/26 17:28:11;;;;;;;10.10;7.20;;;;;;;11.63;58.91;100434.56;106694;1281;23527;-87
2022/04/26 17:30:40;;;;;;;11.80;9.10;;;;;;;11.64;58.88;100437.20;107322;1281;23357;-88
2022/04/26 17:33:07;;;;;;;8.80;6.90;;;;;;;11.64;59.06;100438.80;107396;1281;22584;-86
2022/04/26 17:35:35;;;;;;;9.20;7.60;;;;;;;11.62;59.08;100443.04;107866;1281;22599;-88
2022/04/26 17:38:04;;;;;;;9.70;8.00;;;;;;;11.64;59.15;100439.50;108045;1281;23324;-88
2022/04/26 17:40:42;;;;;;;8.90;7.00;;;;;;;11.64;59.13;100435.45;108033;1281;22654;-88
2022/04/26 17:43:11;;;;;;;8.90;7.10;;;;;;;11.66;58.95;100443.17;107116;1288;22554;-88
2022/04/26 17:45:40;;;;;;;8.20;6.80;;;;;;;11.66;59.04;100446.89;106498;1288;22592;-87
2022/04/26 17:48:08;;;;;;;9.10;6.60;;;;;;;11.68;58.95;100450.20;105385;1294;22576;-88
2022/04/26 17:50:37;;;;;;;13.50;7.20;;;;;;;11.64;58.74;100450.26;105798;1294;23079;-87
2022/04/26 17:58:37;;;;;;;10.00;7.40;;;;;;;11.55;59.00;100456.55;104005;1305;23160;-85
2022/04/26 18:01:05;;;;;;;8.50;6.80;;;;;;;11.52;59.14;100457.98;103811;1299;22753;-86
2022/04/26 18:03:35;;;;;;;10.50;7.70;;;;;;;11.52;59.62;100461.34;104843;1299;24367;-89
2022/04/26 18:06:02;;;;;;;11.40;8.00;;;;;;;11.51;59.58;100464.69;105566;1299;23204;-87
2022/04/26 18:08:29;;;;;;;8.00;6.60;;;;;;;11.54;59.79;100472.96;104575;1303;22738;-87
2022/04/26 18:10:58;;;;;;;12.10;7.30;;;;;;;11.52;59.51;100475.96;104382;1300;22604;-88
2022/04/26 18:13:28;;;;;;;9.20;7.40;;;;;;;11.44;59.25;100476.77;103797;1302;22599;-88
2022/04/26 18:15:55;;;;;;;10.60;8.30;;;;;;;11.39;59.42;100475.95;103968;1302;22645;-87
2022/04/26 18:18:24;;;;;;;10.40;8.20;;;;;;;11.42;59.59;100482.79;104282;1299;25444;-87
2022/04/26 18:20:55;;;;;;;12.30;8.20;;;;;;;11.43;59.68;100486.66;104435;1294;22736;-88
2022/04/26 18:23:22;;;;;;;11.80;8.10;;;;;;;11.42;59.69;100494.25;104644;1291;24375;-86
2022/04/26 18:28:43;;;;;;;11.00;8.80;;;;;;;11.44;59.86;100500.58;104599;1294;22616;-88
2022/04/26 18:31:13;;;;;;;11.70;9.00;;;;;;;11.45;60.03;100505.34;104568;1291;25381;-88
2022/04/26 18:33:41;;;;;;;11.70;9.30;;;;;;;11.44;60.19;100510.64;104452;1296;22569;-86
2022/04/26 18:36:09;;;;;;;12.90;8.40;;;;;;;11.42;59.98;100511.89;104261;1299;22738;-87
2022/04/26 18:38:38;;;;;;;9.60;8.40;;;;;;;11.32;60.05;100515.88;104334;1299;22940;-86
2022/04/26 18:41:08;;;;;;;11.10;9.60;;;;;;;11.28;60.05;100520.67;104327;1299;23441;-86
2022/04/26 18:43:43;;;;;;;11.40;9.60;;;;;;;11.26;60.36;100523.87;103970;1299;22660;-86
2022/04/26 18:46:15;;;;;;;10.40;8.30;;;;;;;11.29;60.35;100526.83;104135;1297;23499;-85
2022/04/26 18:48:43;;;;;;;10.40;8.50;;;;;;;11.30;60.26;100525.41;103802;1299;24308;-80
2022/04/26 18:51:10;;;;;;;11.90;9.60;;;;;;;11.32;60.31;100529.27;103724;1297;22566;-82
2022/04/26 18:53:39;;;;;;;11.10;9.00;;;;;;;11.33;60.40;100528.20;104478;1294;22599;-83
2022/04/26 18:56:07;;;;;;;13.70;10.60;;;;;;;11.33;60.21;100530.33;104390;1294;24030;-84
2022/04/26 18:58:34;;;;;;;11.30;8.90;;;;;;;11.31;60.39;100531.92;104222;1294;24239;-84
2022/04/26 19:01:01;;;;;;;14.90;9.40;;;;;;;11.31;60.35;100531.75;104572;1291;24278;-81